createdAt,value
2023-09-07T00:00:14.757Z,99.90
2023-09-07T00:05:19.078Z,99.90
2023-09-07T00:10:23.567Z,99.90
2023-09-07T00:15:28.626Z,99.90
2023-09-07T00:20:34.207Z,99.90
2023-09-07T00:25:38.448Z,99.90
2023-09-07T00:30:42.891Z,99.90
2023-09-07T00:35:47.154Z,99.90
2023-09-07T00:40:51.379Z,99.90
2023-09-07T00:45:56.507Z,99.90
2023-09-07T00:51:02.072Z,99.90
2023-09-07T00:56:06.515Z,99.90
2023-09-07T01:01:11.387Z,99.90
2023-09-07T01:06:19.805Z,99.90
2023-09-07T01:11:25.129Z,99.90
2023-09-07T01:16:30.609Z,99.90
2023-09-07T01:21:38.981Z,99.90
2023-09-07T01:26:44.707Z,99.90
2023-09-07T01:31:50.383Z,99.90
2023-09-07T01:36:54.708Z,99.90
2023-09-07T01:41:58.976Z,99.90
2023-09-07T01:47:03.399Z,99.90
2023-09-07T01:52:08.323Z,99.90
2023-09-07T01:57:12.608Z,99.90
2023-09-07T02:02:16.949Z,99.90
2023-09-07T02:07:21.926Z,99.90
2023-09-07T02:12:27.081Z,99.90
2023-09-07T02:17:32.508Z,99.90
2023-09-07T02:22:36.932Z,99.90
2023-09-07T02:27:41.926Z,99.90
2023-09-07T02:32:46.227Z,99.90
2023-09-07T02:37:51.122Z,99.90
2023-09-07T02:42:55.733Z,99.90
2023-09-07T02:48:00.467Z,99.90
2023-09-07T02:53:06.703Z,99.90
2023-09-07T02:58:11.641Z,99.90
2023-09-07T03:03:16.938Z,99.90
2023-09-07T03:08:23.065Z,99.90
2023-09-07T03:13:27.528Z,99.90
2023-09-07T03:18:32.482Z,99.90
2023-09-07T03:23:37.460Z,99.90
2023-09-07T03:28:44.456Z,99.90
2023-09-07T03:33:48.891Z,99.90
2023-09-07T03:38:53.575Z,99.90
2023-09-07T03:43:58.195Z,99.90
2023-09-07T03:49:02.483Z,99.90
2023-09-07T03:54:07.299Z,99.90
2023-09-07T03:59:13.427Z,99.90
2023-09-07T04:04:18.035Z,99.90
2023-09-07T04:09:22.669Z,99.90
2023-09-07T04:14:27.450Z,99.90
2023-09-07T04:19:34.787Z,99.90
2023-09-07T04:24:39.706Z,99.90
2023-09-07T04:29:46.415Z,99.90
2023-09-07T04:34:55.329Z,99.90
2023-09-07T04:40:03.365Z,99.90
2023-09-07T04:45:08.642Z,99.90
2023-09-07T04:50:15.822Z,99.90
2023-09-07T04:55:20.212Z,99.90
2023-09-07T05:00:24.904Z,99.90
2023-09-07T05:05:29.328Z,99.90
2023-09-07T05:10:37.119Z,99.90
2023-09-07T05:15:49.808Z,99.90
2023-09-07T05:20:55.627Z,99.90
2023-09-07T05:26:00.535Z,99.90
2023-09-07T05:31:05.260Z,99.90
2023-09-07T05:36:10.963Z,99.90
2023-09-07T05:41:15.314Z,99.90
2023-09-07T05:46:20.032Z,99.90
2023-09-07T05:51:24.587Z,99.90
2023-09-07T05:56:29.062Z,99.90
2023-09-07T06:01:34.314Z,99.90
2023-09-07T06:06:39.203Z,99.90
2023-09-07T06:11:43.660Z,98.70
2023-09-07T06:16:48.445Z,99.90
2023-09-07T06:21:53.607Z,99.90
2023-09-07T06:26:57.976Z,99.90
2023-09-07T06:32:03.188Z,99.90
2023-09-07T06:37:08.531Z,99.90
2023-09-07T06:42:13.207Z,99.80
2023-09-07T06:47:30.419Z,99.90
2023-09-07T06:52:36.953Z,97.80
2023-09-07T06:57:41.311Z,98.50
2023-09-07T07:02:45.838Z,96.80
2023-09-07T07:07:51.328Z,93.80
2023-09-07T07:12:55.905Z,90.50
2023-09-07T07:18:00.623Z,80.30
2023-09-07T07:23:05.218Z,90.00
2023-09-07T07:28:09.636Z,90.50
2023-09-07T07:33:14.579Z,91.40
2023-09-07T07:38:19.333Z,94.50
2023-09-07T07:43:24.555Z,97.30
2023-09-07T07:48:31.809Z,96.40
2023-09-07T07:53:36.453Z,93.10
2023-09-07T07:58:40.803Z,93.90
2023-09-07T08:03:45.676Z,93.00
2023-09-07T08:08:50.398Z,96.80
2023-09-07T08:13:54.918Z,98.90
2023-09-07T08:18:59.697Z,99.90
2023-09-07T08:24:05.180Z,98.40
2023-09-07T08:29:10.925Z,99.70
2023-09-07T08:34:15.616Z,97.90
2023-09-07T08:39:19.899Z,99.80
2023-09-07T08:44:24.961Z,99.90
2023-09-07T08:49:29.464Z,99.90
2023-09-07T08:54:34.373Z,99.90
2023-09-07T08:59:38.745Z,99.90
2023-09-07T09:04:43.031Z,99.90
2023-09-07T09:09:47.382Z,99.90
2023-09-07T09:14:51.674Z,99.90
2023-09-07T09:19:57.418Z,99.90
2023-09-07T09:25:06.795Z,99.90
2023-09-07T09:30:11.227Z,99.90
2023-09-07T09:35:15.794Z,99.90
2023-09-07T09:40:21.245Z,99.90
2023-09-07T09:45:26.397Z,99.90
2023-09-07T09:50:30.697Z,99.90
2023-09-07T09:55:35.218Z,99.90
2023-09-07T10:00:40.292Z,99.90
2023-09-07T10:05:47.130Z,99.90
2023-09-07T10:10:58.340Z,99.90
2023-09-07T10:16:06.884Z,99.90
2023-09-07T10:21:11.224Z,99.90
2023-09-07T10:26:18.964Z,99.90
2023-09-07T10:31:36.604Z,99.90
2023-09-07T10:36:48.556Z,99.90
2023-09-07T10:41:52.886Z,99.90
2023-09-07T10:46:57.647Z,99.90
2023-09-07T10:52:02.149Z,99.90
2023-09-07T10:57:13.580Z,99.90
2023-09-07T11:02:18.380Z,99.90
2023-09-07T11:07:25.865Z,99.90
2023-09-07T11:12:30.110Z,99.90
2023-09-07T11:17:35.303Z,99.90
2023-09-07T11:22:55.561Z,99.90
2023-09-07T11:28:09.966Z,99.90
2023-09-07T11:33:14.472Z,99.90
2023-09-07T11:38:20.037Z,99.90
2023-09-07T11:43:25.301Z,99.90
2023-09-07T11:48:41.777Z,99.90
2023-09-07T11:53:50.859Z,99.90
2023-09-07T11:58:55.580Z,99.90
2023-09-07T12:04:00.177Z,99.90
2023-09-07T12:09:41.865Z,99.90
2023-09-07T12:14:46.854Z,99.90
2023-09-07T12:19:53.810Z,99.90
2023-09-07T12:25:12.446Z,99.90
2023-09-07T12:30:20.888Z,99.90
2023-09-07T12:35:26.117Z,99.90
2023-09-07T12:40:31.200Z,99.90
2023-09-07T12:45:36.684Z,99.90
2023-09-07T12:50:45.318Z,99.90
2023-09-07T12:55:50.154Z,99.90
2023-09-07T13:00:55.369Z,99.90
2023-09-07T13:06:00.478Z,99.90
2023-09-07T13:11:08.554Z,99.90
2023-09-07T13:16:14.156Z,99.90
2023-09-07T13:22:02.315Z,99.90
2023-09-07T13:27:28.392Z,99.90
2023-09-07T13:32:34.721Z,99.90
2023-09-07T13:37:39.695Z,99.90
2023-09-07T13:42:45.566Z,99.90
2023-09-07T13:47:50.567Z,99.90
2023-09-07T13:52:55.602Z,99.90
2023-09-07T13:58:00.744Z,99.90
2023-09-07T14:03:06.742Z,99.90
2023-09-07T14:08:12.009Z,99.90
2023-09-07T14:13:17.156Z,99.90
2023-09-07T14:18:21.879Z,99.90
2023-09-07T14:23:30.784Z,99.90
2023-09-07T14:28:38.128Z,99.90
2023-09-07T14:33:44.757Z,99.90
2023-09-07T14:38:49.469Z,99.90
2023-09-07T14:43:54.199Z,99.90
2023-09-07T14:48:59.668Z,99.90
2023-09-07T14:54:04.991Z,99.90
2023-09-07T14:59:10.174Z,99.90
2023-09-07T15:04:16.229Z,99.90
2023-09-07T15:09:20.962Z,99.90
2023-09-07T15:14:26.087Z,99.90
2023-09-07T15:19:32.613Z,99.90
2023-09-07T15:24:37.912Z,99.90
2023-09-07T15:29:43.409Z,99.90
2023-09-07T15:34:48.123Z,99.90
2023-09-07T15:39:53.100Z,99.90
2023-09-07T15:44:57.773Z,99.90
2023-09-07T15:50:02.629Z,99.90
2023-09-07T15:55:08.525Z,99.90
2023-09-07T16:00:14.310Z,99.90
2023-09-07T16:05:21.256Z,99.90
2023-09-07T16:10:26.083Z,99.90
2023-09-07T16:15:30.743Z,99.90
2023-09-07T16:20:36.212Z,99.90
2023-09-07T16:25:41.288Z,99.90
2023-09-07T16:30:46.049Z,99.90
2023-09-07T16:35:50.687Z,99.90
2023-09-07T16:40:55.497Z,99.90
2023-09-07T16:46:09.009Z,99.90
2023-09-07T16:51:14.197Z,99.90
2023-09-07T16:56:19.521Z,99.90
2023-09-07T17:01:23.850Z,99.90
2023-09-07T17:06:28.565Z,99.90
2023-09-07T17:11:35.676Z,99.90
2023-09-07T17:16:40.622Z,99.90
2023-09-07T17:21:45.476Z,99.90
2023-09-07T17:26:50.794Z,99.90
2023-09-07T17:31:55.225Z,99.90
2023-09-07T17:36:59.940Z,99.90
2023-09-07T17:42:05.425Z,99.90
2023-09-07T17:47:10.163Z,99.90
2023-09-07T17:52:15.034Z,99.90
2023-09-07T17:57:19.780Z,99.90
2023-09-07T18:02:27.527Z,99.90
2023-09-07T18:07:32.536Z,99.90
2023-09-07T18:12:37.550Z,99.90
2023-09-07T18:17:42.781Z,99.90
2023-09-07T18:22:47.216Z,99.90
2023-09-07T18:27:52.009Z,99.90
2023-09-07T18:32:56.954Z,99.90
2023-09-07T18:38:01.712Z,99.90
2023-09-07T18:43:06.560Z,99.90
2023-09-07T18:48:11.488Z,99.90
2023-09-07T18:53:16.372Z,99.90
2023-09-07T18:58:21.381Z,99.90
2023-09-07T19:03:26.324Z,99.90
2023-09-07T19:08:31.695Z,99.90
2023-09-07T19:13:36.809Z,99.90
2023-09-07T19:18:41.382Z,99.90
2023-09-07T19:23:46.810Z,99.90
2023-09-07T19:28:51.642Z,99.90
2023-09-07T19:33:58.843Z,99.90
2023-09-07T19:39:03.737Z,99.90
2023-09-07T19:44:09.144Z,99.90
2023-09-07T19:49:15.185Z,99.90
2023-09-07T19:54:19.882Z,99.90
2023-09-07T19:59:24.616Z,99.90
2023-09-07T20:04:29.819Z,99.90
2023-09-07T20:09:34.687Z,99.90
2023-09-07T20:14:39.321Z,99.90
2023-09-07T20:19:45.831Z,99.90
2023-09-07T20:24:50.613Z,99.90
2023-09-07T20:29:55.378Z,99.90
2023-09-07T20:35:00.018Z,99.90
2023-09-07T20:40:08.343Z,99.90
2023-09-07T20:45:12.898Z,99.90
2023-09-07T20:50:17.652Z,99.90
2023-09-07T20:55:22.347Z,99.90
2023-09-07T21:00:27.297Z,99.90
2023-09-07T21:05:32.264Z,99.90
2023-09-07T21:10:37.110Z,99.90
2023-09-07T21:15:42.170Z,99.90
2023-09-07T21:20:48.498Z,99.90
2023-09-07T21:25:53.182Z,99.90
2023-09-07T21:30:58.080Z,99.90
2023-09-07T21:36:03.078Z,99.90
2023-09-07T21:41:08.473Z,99.90
2023-09-07T21:46:14.134Z,99.90
2023-09-07T21:51:18.862Z,99.90
2023-09-07T21:56:23.877Z,99.90
2023-09-07T22:01:29.156Z,99.90
2023-09-07T22:06:34.042Z,99.90
2023-09-07T22:11:38.594Z,99.90
2023-09-07T22:16:43.354Z,99.90
2023-09-07T22:21:48.440Z,99.90
2023-09-07T22:26:56.803Z,99.90
2023-09-07T22:32:03.429Z,99.90
2023-09-07T22:37:08.001Z,99.90
2023-09-07T22:42:13.285Z,99.90
2023-09-07T22:47:18.947Z,99.90
2023-09-07T22:52:23.647Z,99.90
2023-09-07T22:57:28.402Z,99.90
2023-09-07T23:02:33.152Z,99.90
2023-09-07T23:07:37.948Z,99.90
2023-09-07T23:12:42.863Z,99.90
2023-09-07T23:17:50.436Z,99.90
2023-09-07T23:22:55.267Z,99.90
2023-09-07T23:28:29.140Z,99.90
2023-09-07T23:33:36.718Z,99.90
2023-09-07T23:38:41.682Z,99.90
2023-09-07T23:43:46.349Z,99.90
2023-09-07T23:48:51.043Z,99.90
2023-09-07T23:53:55.731Z,99.90
2023-09-07T23:59:00.419Z,99.90
